EBCI

Brussels South Charleroi Airport

Brussels, Belgium
METAR EBCI 191950Z 25005KT 9999 FEW015 BKN022 18/16 Q1025 NOSIG
Observed Flight Rules
Jun-19 @ 19:50 UTC (24 minutes ago) Marginal Visual Flight Rules
Wind Visibility Clouds
250° at 5 knots 10,000+ meters
  • Few at 1,500' AGL
  • Broken at 2,200' AGL
Temperatures Readings
Current 18°C / 64°F
Dewpoint 16°C / 61°F
Humidity 88%
Altimeter 30.27" Hg
Pressure 1025 hPa
Elevation 192
METAR EBCI 191950Z 25005KT 9999 FEW015 BKN022 18/16 Q1025 NOSIG
Observed Flight Rules
Jun-19 @ 19:50 UTC
(24 minutes ago)
MVFR
Wind Visibility
250° at 5 knots 10,000+ meters
Clouds
  • Few at 1,500' AGL
  • Broken at 2,200' AGL
Temperature Dewpoint
18°C / 64°F 16°C / 61°F
Humidity Altimeter Pressure
88% 30.27" Hg 1025 hPa